Airfield :
LOGIN :

Register | Disclaimer

   EN    FR    IT 

 










Legend :    VFR   Marginal VFR   IFR   Intensive IFR   Very Intensive IFR
Visi :
Ceiling :
>= 8 km
>= 3000ft
5 to 8 km
1000 to 3000 ft
1500m to 5 km
500 to 1000 ft
800 to 1500m
200 to 500 ft
< 800m
< 200 ft
Symbols :   Thunderstorms  Fog  Heavy snow  Heavy precipitations  Wind > 20 kt
SIGMETs :     Misc.  Thunderstorms  Icing  Turbulence  Mountain Waves  Volcanic Ashes






- Airport Elevation : 375 ft
- IATA code : MST


EHBK - Maastricht Aachen

CURRENT METAR :
  • 131055Z AUTO 24010KT 190V270 9999 SCT022/// SCT026/// BKN032/// 16/11 Q1013 NOSIG

EXPIRED METARs :
  • 131025Z AUTO 23009KT 200V280 9999 SCT023/// OVC026/// 15/11 Q1013 NOSIG
  • 130955Z AUTO 24011KT 190V280 9999 FEW018/// BKN021/// OVC025/// 15/11 Q1013 NOSIG
  • 130925Z AUTO 23010KT 200V300 9999 SCT018/// BKN021/// OVC026/// 15/11 Q1013 NOSIG
  • 130855Z AUTO 23014KT 200V290 9999 SCT017 BKN021 OVC025 14/10 Q1013 NOSIG
  • 130825Z AUTO 23014KT 200V260 9999 BKN015 OVC025 14/11 Q1013 NOSIG
  • 130755Z AUTO 24012KT 200V280 9999 SCT014 BKN017 BKN020 14/11 Q1013 NOSIG
  • 130725Z AUTO 23011KT 200V280 9999 FEW016 OVC025 14/11 Q1013 NOSIG
  • 130655Z AUTO 23011KT 200V260 9999 SCT010 SCT013 OVC024 13/11 Q1013 NOSIG
  • 130625Z AUTO 23012KT 200V270 9999 FEW009 BKN010 OVC013 13/11 Q1013 NOSIG

TAF TAF EHBK
Valid from the 13 at 06:00 until the 14 at 12:00 UTC


130459Z 1306/1412 23010KT 9999 SCT020
PROB30
TEMPO 1307/1311 7000 RA -SHRA FEW018TCU BKN020
PROB30
TEMPO 1314/1319 6000 SHRA FEW020CB
BECMG 1321/1324 17004KT
PROB30
TEMPO 1322/1402 6000 MIFG
BECMG 1409/1412 24010KT



MET'MAP, your aeronautical weather chart ! - Copyright ORBIFLY December 2007 - Disclaimer

ORBIFLY MET'MAP TEAM :

Programming & Development : Alexandra Zaïnal
Original concept : Baudouin d'Aumeries
Technical & hardware support : Manuel Goepfert
Assistance : Marc-Olivier Méhu




SOURCES & CREDITS :

   NOAA